Time;durP1;ratioP1;P1;durP2;ratioP2;P2;SDS_P1;SDS_P2;PMS_P1;PMS_P2;Temp;Humidity;BMP_temperature;BMP_pressure;BME280_temperature;BME280_humidity;BME280_pressure;Samples;Min_cycle;Max_cycle;Signal;HPM_P1;HPM_P2
2021/10/03 00:01:56;;;;;;;6.57;1.98;;;17.80;90.70;;;;;;5091661;28;20044;-72
2021/10/03 00:04:24;;;;;;;3.13;2.10;;;17.80;90.90;;;;;;5090132;28;20065;-72
2021/10/03 00:06:53;;;;;;;2.65;1.73;;;17.80;90.90;;;;;;5084326;28;20115;-72
2021/10/03 00:09:19;;;;;;;4.97;1.80;;;17.80;91.00;;;;;;5075877;28;20067;-72
2021/10/03 00:11:46;;;;;;;3.00;1.65;;;17.80;91.10;;;;;;5080762;28;20111;-72
2021/10/03 00:14:12;;;;;;;2.03;1.52;;;17.80;91.00;;;;;;5077511;28;20029;-72
2021/10/03 00:16:39;;;;;;;2.97;1.50;;;17.80;91.40;;;;;;5076838;28;20036;-71
2021/10/03 00:19:05;;;;;;;0.70;0.60;;;17.80;91.10;;;;;;5097510;28;20028;-71
2021/10/03 00:21:31;;;;;;;3.35;1.65;;;17.90;91.00;;;;;;5075425;28;20043;-72
2021/10/03 00:23:57;;;;;;;1.20;1.08;;;17.80;91.20;;;;;;5075570;28;20025;-72
2021/10/03 00:26:22;;;;;;;0.93;0.88;;;17.80;91.10;;;;;;5092053;28;20356;-71
2021/10/03 00:28:48;;;;;;;4.03;1.92;;;17.80;91.30;;;;;;5085145;28;20499;-72
2021/10/03 00:31:14;;;;;;;1.20;1.10;;;17.70;91.50;;;;;;5081387;28;20028;-71
2021/10/03 00:33:40;;;;;;;6.85;2.45;;;17.70;91.60;;;;;;5086170;28;20036;-72
2021/10/03 00:36:05;;;;;;;3.42;1.30;;;17.80;91.90;;;;;;5081314;28;20124;-72
2021/10/03 00:38:31;;;;;;;2.90;1.55;;;17.80;91.70;;;;;;5081288;28;20028;-71
2021/10/03 00:40:57;;;;;;;1.48;1.15;;;17.80;91.60;;;;;;5078148;28;20059;-72
2021/10/03 00:43:23;;;;;;;1.95;1.23;;;17.80;91.50;;;;;;5091905;28;20024;-72
2021/10/03 00:45:49;;;;;;;2.03;1.50;;;17.80;91.60;;;;;;5096313;28;20035;-72
2021/10/03 00:48:14;;;;;;;1.75;1.05;;;17.80;91.60;;;;;;5087406;28;20099;-72
2021/10/03 00:50:42;;;;;;;3.45;0.85;;;17.80;91.60;;;;;;5081742;28;20120;-72
2021/10/03 00:53:08;;;;;;;2.22;1.15;;;17.80;91.60;;;;;;5083208;28;20036;-72
2021/10/03 00:55:34;;;;;;;2.30;1.38;;;17.80;91.70;;;;;;5081192;28;20028;-71
2021/10/03 00:58:00;;;;;;;1.90;1.38;;;17.80;91.80;;;;;;5088640;28;20107;-72
2021/10/03 01:00:28;;;;;;;2.50;1.77;;;17.80;91.80;;;;;;5103933;28;20468;-72
2021/10/03 01:02:56;;;;;;;3.75;1.65;;;17.80;92.00;;;;;;5081370;28;20418;-72
2021/10/03 01:05:22;;;;;;;1.23;1.10;;;17.90;91.90;;;;;;5090477;28;20024;-73
2021/10/03 01:07:47;;;;;;;4.50;1.35;;;17.90;92.00;;;;;;5095727;28;20111;-72
2021/10/03 01:10:23;;;;;;;3.60;1.27;;;17.90;92.20;;;;;;5090017;28;20131;-73
2021/10/03 01:13:04;;;;;;;0.88;0.85;;;17.80;92.30;;;;;;5081626;28;20039;-72
2021/10/03 01:15:32;;;;;;;0.68;0.63;;;17.80;92.30;;;;;;5089752;28;20036;-72
2021/10/03 01:17:58;;;;;;;0.70;0.70;;;17.80;92.30;;;;;;5084482;28;20062;-72
2021/10/03 01:20:24;;;;;;;0.80;0.75;;;17.80;92.30;;;;;;5080114;28;20075;-72
2021/10/03 01:22:51;;;;;;;0.95;0.85;;;17.80;92.40;;;;;;5091496;28;20031;-72
2021/10/03 01:25:18;;;;;;;1.10;0.68;;;17.80;92.60;;;;;;5093870;28;20036;-72
2021/10/03 01:27:43;;;;;;;2.95;1.50;;;17.90;92.80;;;;;;5086159;28;20549;-72
2021/10/03 01:30:13;;;;;;;0.90;0.82;;;17.80;92.60;;;;;;5075808;28;20103;-72
2021/10/03 01:32:39;;;;;;;2.88;1.02;;;17.80;92.60;;;;;;5089945;28;20031;-72
2021/10/03 01:35:05;;;;;;;1.27;0.90;;;17.90;92.70;;;;;;5102343;28;20032;-72
2021/10/03 01:37:33;;;;;;;1.98;1.40;;;17.90;92.60;;;;;;5077875;28;20103;-72
2021/10/03 01:40:01;;;;;;;1.70;1.00;;;17.90;92.80;;;;;;5086532;28;20133;-72
2021/10/03 01:42:27;;;;;;;0.85;0.63;;;17.90;92.60;;;;;;5102984;28;20040;-73
2021/10/03 01:44:52;;;;;;;1.67;0.57;;;17.90;92.60;;;;;;5081530;28;20467;-72
2021/10/03 01:47:20;;;;;;;1.00;0.77;;;17.90;92.70;;;;;;5090209;28;20032;-72
2021/10/03 01:49:49;;;;;;;1.02;0.93;;;17.90;92.80;;;;;;5100152;28;20043;-73
2021/10/03 01:52:16;;;;;;;1.42;1.23;;;18.00;92.90;;;;;;5082944;28;20028;-72
2021/10/03 01:54:42;;;;;;;0.85;0.82;;;18.00;93.00;;;;;;5078968;28;20059;-72
2021/10/03 01:57:07;;;;;;;0.50;0.50;;;18.00;93.00;;;;;;5084361;28;20029;-72
2021/10/03 01:59:33;;;;;;;0.63;0.43;;;18.00;92.90;;;;;;5087154;28;20384;-72
2021/10/03 02:01:59;;;;;;;1.10;0.98;;;18.00;92.80;;;;;;5081315;28;20037;-72
2021/10/03 02:04:25;;;;;;;0.77;0.77;;;18.00;93.00;;;;;;5083975;28;20032;-72
2021/10/03 02:06:53;;;;;;;4.05;1.08;;;18.00;92.90;;;;;;5092721;28;20031;-71
2021/10/03 02:09:21;;;;;;;0.50;0.50;;;18.00;92.90;;;;;;5085570;28;20439;-71
2021/10/03 02:11:50;;;;;;;0.52;0.52;;;18.10;92.80;;;;;;5075217;28;20480;-72
2021/10/03 02:14:19;;;;;;;0.45;0.45;;;18.10;92.80;;;;;;5079211;28;20119;-71
2021/10/03 02:16:45;;;;;;;0.50;0.40;;;18.10;92.70;;;;;;5082850;28;20035;-71
2021/10/03 02:19:11;;;;;;;1.33;0.80;;;18.10;92.80;;;;;;5081712;28;20033;-71
2021/10/03 02:21:37;;;;;;;0.82;0.65;;;18.10;92.90;;;;;;5080759;28;20032;-71
2021/10/03 02:24:03;;;;;;;1.60;0.63;;;18.10;92.90;;;;;;5082859;28;20024;-71
2021/10/03 02:26:29;;;;;;;0.98;0.82;;;18.20;92.90;;;;;;5082363;28;20027;-71
2021/10/03 02:28:55;;;;;;;0.98;0.68;;;18.20;93.00;;;;;;5090699;28;20460;-71
2021/10/03 02:31:21;;;;;;;0.50;0.50;;;18.20;92.90;;;;;;5074570;28;20174;-71
2021/10/03 02:33:49;;;;;;;1.10;0.80;;;18.20;92.90;;;;;;5088432;28;20746;-71
2021/10/03 02:36:17;;;;;;;0.40;0.40;;;18.20;92.90;;;;;;5091255;28;20028;-71
2021/10/03 02:38:44;;;;;;;0.70;0.57;;;18.20;93.00;;;;;;5092687;28;20051;-71
2021/10/03 02:41:11;;;;;;;0.73;0.60;;;18.20;93.00;;;;;;5081200;28;20082;-72
2021/10/03 02:43:40;;;;;;;0.63;0.50;;;18.20;93.10;;;;;;5089565;28;20052;-72
2021/10/03 02:46:06;;;;;;;0.40;0.40;;;18.20;93.10;;;;;;5086503;28;20411;-71
2021/10/03 02:48:35;;;;;;;0.80;0.80;;;18.20;93.10;;;;;;5073371;28;20021;-71
2021/10/03 02:51:02;;;;;;;0.90;0.80;;;18.30;93.30;;;;;;5074261;28;20033;-72
2021/10/03 02:53:27;;;;;;;1.02;0.50;;;18.20;93.20;;;;;;5073603;28;20487;-71
2021/10/03 02:55:53;;;;;;;0.32;0.32;;;18.20;93.10;;;;;;5086456;28;20078;-72
2021/10/03 02:58:19;;;;;;;0.77;0.60;;;18.30;93.10;;;;;;5075281;28;20044;-72
2021/10/03 03:00:46;;;;;;;0.95;0.65;;;18.20;93.10;;;;;;5074184;28;20048;-71
2021/10/03 03:03:12;;;;;;;2.40;1.25;;;18.30;93.10;;;;;;5076269;28;20340;-72
2021/10/03 03:05:41;;;;;;;0.70;0.70;;;18.30;93.10;;;;;;5091314;28;20085;-72
2021/10/03 03:08:07;;;;;;;0.52;0.50;;;18.30;93.20;;;;;;5078883;28;20036;-72
2021/10/03 03:10:33;;;;;;;0.20;0.20;;;18.40;93.10;;;;;;5086137;28;20111;-72
2021/10/03 03:12:59;;;;;;;0.85;0.60;;;18.30;93.10;;;;;;5085560;28;20134;-72
2021/10/03 03:15:25;;;;;;;0.40;0.30;;;18.40;93.20;;;;;;5091054;28;20032;-72
2021/10/03 03:17:51;;;;;;;0.45;0.30;;;18.30;93.10;;;;;;5092823;28;20119;-71
2021/10/03 03:20:17;;;;;;;2.22;0.68;;;18.30;93.20;;;;;;5087397;28;20127;-71
2021/10/03 03:22:43;;;;;;;0.65;0.50;;;18.30;93.30;;;;;;5073997;28;20031;-71
2021/10/03 03:25:12;;;;;;;1.60;0.60;;;18.30;93.30;;;;;;5086976;28;20036;-71
2021/10/03 03:27:39;;;;;;;0.30;0.30;;;18.30;93.30;;;;;;5073391;28;20081;-71
2021/10/03 03:30:08;;;;;;;0.40;0.40;;;18.30;93.30;;;;;;5086489;28;20032;-71
2021/10/03 03:32:34;;;;;;;0.20;0.20;;;18.30;93.40;;;;;;5073313;28;20035;-71
2021/10/03 03:34:59;;;;;;;0.30;0.30;;;18.30;93.60;;;;;;5074012;28;20025;-71
2021/10/03 03:37:25;;;;;;;0.22;0.22;;;18.20;93.60;;;;;;5089755;28;20032;-71
2021/10/03 03:39:51;;;;;;;0.30;0.30;;;18.20;93.70;;;;;;5091382;28;20402;-71
2021/10/03 03:42:16;;;;;;;0.43;0.40;;;18.10;93.80;;;;;;5078036;28;20388;-72
2021/10/03 03:44:42;;;;;;;0.30;0.30;;;18.10;93.90;;;;;;5086214;28;20024;-71
2021/10/03 03:47:08;;;;;;;1.10;0.25;;;18.10;93.90;;;;;;5084436;28;20083;-71
2021/10/03 03:49:34;;;;;;;0.30;0.20;;;18.00;93.90;;;;;;5091844;28;20484;-71
2021/10/03 03:52:00;;;;;;;0.40;0.40;;;18.00;93.80;;;;;;5074140;28;20033;-71
2021/10/03 03:54:25;;;;;;;0.40;0.40;;;18.10;93.80;;;;;;5078845;28;20024;-71
2021/10/03 03:56:51;;;;;;;2.28;0.85;;;18.10;93.70;;;;;;5081969;28;20394;-71
2021/10/03 03:59:17;;;;;;;3.38;0.30;;;18.10;93.60;;;;;;5087686;28;20032;-71
2021/10/03 04:01:42;;;;;;;0.38;0.38;;;18.10;93.50;;;;;;5081479;28;20041;-71
2021/10/03 04:04:10;;;;;;;0.63;0.38;;;18.10;93.40;;;;;;5072800;28;20514;-71
2021/10/03 04:06:35;;;;;;;0.38;0.38;;;18.20;93.40;;;;;;5086806;28;20028;-72
2021/10/03 04:09:01;;;;;;;0.20;0.20;;;18.10;93.30;;;;;;5083958;28;20056;-71
2021/10/03 04:11:26;;;;;;;0.20;0.20;;;18.10;93.30;;;;;;5076360;28;20029;-71
2021/10/03 04:13:52;;;;;;;0.45;0.45;;;18.20;93.30;;;;;;5078938;28;20394;-71
2021/10/03 04:16:18;;;;;;;1.40;0.40;;;18.10;93.30;;;;;;5089196;28;20151;-71
2021/10/03 04:18:43;;;;;;;0.20;0.20;;;18.00;93.30;;;;;;5074302;28;20051;-71
2021/10/03 04:21:09;;;;;;;2.65;0.60;;;18.00;93.40;;;;;;5082385;28;20035;-71
2021/10/03 04:23:35;;;;;;;0.30;0.30;;;18.00;93.50;;;;;;5077441;28;20028;-72
2021/10/03 04:26:00;;;;;;;1.55;0.30;;;18.00;93.50;;;;;;5079136;28;20036;-74
2021/10/03 04:28:26;;;;;;;0.22;0.22;;;18.00;93.60;;;;;;5084384;28;20028;-78
2021/10/03 04:30:53;;;;;;;1.08;0.43;;;18.00;93.60;;;;;;5089929;28;20048;-74
2021/10/03 04:33:18;;;;;;;0.20;0.20;;;18.00;93.70;;;;;;5080031;28;20067;-71
2021/10/03 04:35:44;;;;;;;0.80;0.52;;;18.00;93.70;;;;;;5091253;28;20031;-75
2021/10/03 04:38:10;;;;;;;2.58;0.60;;;17.90;93.70;;;;;;5097761;28;20107;-76
2021/10/03 04:40:36;;;;;;;0.20;0.20;;;17.90;93.70;;;;;;5089162;28;20547;-70
2021/10/03 04:43:02;;;;;;;0.98;0.32;;;17.90;93.70;;;;;;5082223;28;20032;-71
2021/10/03 04:45:27;;;;;;;0.35;0.35;;;17.90;93.70;;;;;;5089210;28;20047;-77
2021/10/03 04:47:53;;;;;;;0.35;0.30;;;17.90;93.70;;;;;;5087246;28;20115;-77
2021/10/03 04:50:19;;;;;;;0.35;0.35;;;17.90;93.70;;;;;;5086629;28;20035;-76
2021/10/03 04:52:45;;;;;;;0.40;0.40;;;17.90;93.70;;;;;;5082386;28;20396;-76
2021/10/03 04:55:11;;;;;;;0.50;0.50;;;17.80;93.90;;;;;;5082230;28;20059;-74
2021/10/03 04:57:37;;;;;;;0.82;0.50;;;17.80;93.60;;;;;;5083329;28;20032;-74
2021/10/03 05:00:05;;;;;;;0.40;0.40;;;17.80;93.60;;;;;;5096074;28;20434;-74
2021/10/03 05:02:30;;;;;;;0.57;0.38;;;17.80;93.60;;;;;;5089756;28;20035;-74
2021/10/03 05:04:56;;;;;;;0.43;0.40;;;17.80;93.60;;;;;;5079113;28;20091;-74
2021/10/03 05:07:25;;;;;;;0.82;0.70;;;17.70;93.60;;;;;;5082572;28;20455;-77
2021/10/03 05:09:51;;;;;;;0.60;0.45;;;17.70;93.60;;;;;;5093734;28;20471;-76
2021/10/03 05:12:16;;;;;;;0.82;0.32;;;17.60;93.60;;;;;;5086759;28;20032;-70
2021/10/03 05:14:42;;;;;;;1.15;0.80;;;17.70;93.60;;;;;;5088218;28;20024;-72
2021/10/03 05:17:08;;;;;;;0.70;0.60;;;17.60;93.50;;;;;;5088249;28;20486;-72
2021/10/03 05:19:33;;;;;;;2.85;0.52;;;17.60;93.50;;;;;;5087888;28;20035;-72
2021/10/03 05:21:59;;;;;;;0.55;0.40;;;17.70;93.50;;;;;;5085223;28;20535;-73
2021/10/03 05:24:25;;;;;;;3.53;0.90;;;17.60;93.40;;;;;;5088509;28;20039;-72
2021/10/03 05:26:50;;;;;;;0.63;0.57;;;17.70;93.30;;;;;;5084073;28;20463;-72
2021/10/03 05:29:16;;;;;;;0.20;0.20;;;17.70;93.20;;;;;;5085753;28;20024;-72
2021/10/03 05:31:42;;;;;;;1.08;0.50;;;17.60;93.10;;;;;;5086348;28;20468;-72
2021/10/03 05:34:07;;;;;;;0.55;0.55;;;17.70;93.10;;;;;;5090749;28;20032;-72
2021/10/03 05:36:33;;;;;;;0.40;0.40;;;17.60;93.00;;;;;;5086942;28;20028;-72
2021/10/03 05:39:00;;;;;;;0.60;0.60;;;17.60;93.00;;;;;;5083895;28;20042;-72
2021/10/03 05:41:27;;;;;;;1.40;0.73;;;17.60;92.90;;;;;;5083334;28;20079;-71
2021/10/03 05:43:53;;;;;;;2.08;0.50;;;17.60;92.90;;;;;;5088423;28;20024;-72
2021/10/03 05:46:18;;;;;;;2.55;0.70;;;17.70;92.90;;;;;;5090723;28;20031;-72
2021/10/03 05:48:44;;;;;;;2.85;0.35;;;17.70;92.90;;;;;;5083441;28;20067;-72
2021/10/03 05:51:10;;;;;;;1.35;0.63;;;17.70;92.70;;;;;;5090814;28;20115;-72
2021/10/03 05:53:36;;;;;;;1.42;0.50;;;17.70;92.70;;;;;;5086070;28;20544;-71
2021/10/03 05:56:02;;;;;;;2.47;1.20;;;17.80;92.60;;;;;;5082899;28;20107;-72
2021/10/03 05:58:28;;;;;;;1.85;0.63;;;17.70;92.50;;;;;;5088364;28;20104;-72
2021/10/03 06:00:54;;;;;;;0.43;0.43;;;17.80;92.40;;;;;;5090116;28;20471;-78
2021/10/03 06:03:20;;;;;;;1.40;0.70;;;17.80;92.40;;;;;;5079651;28;21311;-72
2021/10/03 06:05:45;;;;;;;0.55;0.50;;;17.80;92.30;;;;;;5085963;28;20056;-72
2021/10/03 06:08:11;;;;;;;1.00;0.60;;;17.80;92.20;;;;;;5073406;28;20499;-72
2021/10/03 06:10:40;;;;;;;1.40;0.55;;;17.90;92.20;;;;;;5092741;28;20497;-71
2021/10/03 06:13:06;;;;;;;1.27;0.70;;;17.80;92.10;;;;;;5084109;28;20031;-76
2021/10/03 06:15:33;;;;;;;1.25;0.63;;;17.90;92.10;;;;;;5076531;28;20024;-81
2021/10/03 06:17:59;;;;;;;1.90;0.60;;;17.90;92.10;;;;;;5086484;28;20043;-73
2021/10/03 06:20:24;;;;;;;2.20;0.80;;;17.90;91.90;;;;;;5085876;28;20040;-72
2021/10/03 06:22:51;;;;;;;2.10;0.77;;;17.90;92.00;;;;;;5081824;28;20094;-71
2021/10/03 06:25:16;;;;;;;2.70;0.50;;;17.90;92.00;;;;;;5080692;28;20031;-73
2021/10/03 06:27:43;;;;;;;0.95;0.60;;;18.00;92.00;;;;;;5076938;28;20487;-73
2021/10/03 06:30:09;;;;;;;1.98;0.80;;;18.00;92.00;;;;;;5081255;28;20016;-73
2021/10/03 06:32:35;;;;;;;1.40;0.75;;;18.00;91.80;;;;;;5080177;28;20402;-74
2021/10/03 06:35:00;;;;;;;0.90;0.68;;;17.90;91.70;;;;;;5084909;28;20036;-74
2021/10/03 06:37:26;;;;;;;1.13;0.70;;;18.00;91.70;;;;;;5084756;28;20052;-71
2021/10/03 06:39:52;;;;;;;3.60;0.70;;;18.00;91.70;;;;;;5090372;28;20117;-74
2021/10/03 06:42:17;;;;;;;5.13;0.90;;;17.90;91.70;;;;;;5087314;28;20322;-74
2021/10/03 06:44:43;;;;;;;3.85;0.80;;;18.00;91.70;;;;;;5087576;28;20029;-74
2021/10/03 06:47:11;;;;;;;4.50;0.68;;;18.00;91.70;;;;;;5077075;28;20040;-73
2021/10/03 06:49:38;;;;;;;1.15;0.70;;;18.00;91.60;;;;;;5086517;28;20071;-74
2021/10/03 06:52:04;;;;;;;1.23;0.70;;;18.00;91.50;;;;;;5090559;28;20020;-75
2021/10/03 06:54:30;;;;;;;8.68;0.90;;;18.00;91.60;;;;;;5083680;28;20020;-74
2021/10/03 06:56:55;;;;;;;0.63;0.40;;;18.00;91.50;;;;;;5082761;28;20111;-75
2021/10/03 06:59:21;;;;;;;0.93;0.60;;;17.90;91.50;;;;;;5078155;28;20050;-74
2021/10/03 07:01:47;;;;;;;2.72;0.82;;;18.00;91.50;;;;;;5083206;28;20085;-75
2021/10/03 07:04:13;;;;;;;0.95;0.65;;;17.90;91.50;;;;;;5084152;28;20032;-75
2021/10/03 07:06:38;;;;;;;3.00;0.73;;;18.00;91.50;;;;;;5086113;28;20043;-75
2021/10/03 07:09:04;;;;;;;1.48;0.50;;;17.90;91.50;;;;;;5077233;28;20028;-76
2021/10/03 07:11:30;;;;;;;1.38;0.60;;;17.90;91.40;;;;;;5079917;28;20382;-76
2021/10/03 07:13:55;;;;;;;1.75;0.90;;;17.90;91.40;;;;;;5078239;28;20460;-76
2021/10/03 07:16:21;;;;;;;1.85;0.98;;;18.00;91.40;;;;;;5086493;28;20025;-76
2021/10/03 07:18:47;;;;;;;1.17;0.80;;;17.90;91.40;;;;;;5081525;28;20735;-76
2021/10/03 07:21:12;;;;;;;4.97;1.10;;;17.90;91.50;;;;;;5080956;28;20028;-75
2021/10/03 07:23:39;;;;;;;2.47;0.88;;;17.90;91.50;;;;;;5075312;28;20470;-76
2021/10/03 07:26:05;;;;;;;2.08;0.80;;;17.90;91.40;;;;;;5070703;28;20082;-75
2021/10/03 07:28:31;;;;;;;3.67;1.17;;;17.90;91.40;;;;;;5076755;28;20024;-75
2021/10/03 07:30:57;;;;;;;3.70;0.95;;;17.90;91.40;;;;;;5071935;28;20526;-75
2021/10/03 07:33:23;;;;;;;1.40;0.80;;;17.90;91.50;;;;;;5074175;28;20127;-76
2021/10/03 07:35:48;;;;;;;3.67;1.10;;;17.90;91.60;;;;;;5073301;28;20024;-75
2021/10/03 07:38:14;;;;;;;1.67;0.90;;;18.00;91.60;;;;;;5085708;28;20077;-76
2021/10/03 07:40:41;;;;;;;1.75;0.65;;;18.00;91.90;;;;;;5080930;28;20040;-75
2021/10/03 07:43:07;;;;;;;1.17;1.05;;;18.00;91.50;;;;;;5086128;28;20040;-76
2021/10/03 07:45:33;;;;;;;1.85;0.60;;;18.00;91.50;;;;;;5083547;28;20051;-76
2021/10/03 07:47:58;;;;;;;0.65;0.63;;;18.00;91.40;;;;;;5084195;28;20069;-76
2021/10/03 07:50:25;;;;;;;2.72;0.73;;;18.00;91.40;;;;;;5081584;28;20471;-75
2021/10/03 07:52:50;;;;;;;1.27;0.70;;;18.00;91.40;;;;;;5071429;28;20024;-75
2021/10/03 07:55:16;;;;;;;3.45;0.60;;;18.00;91.30;;;;;;5075833;28;20436;-74
2021/10/03 07:57:42;;;;;;;1.55;0.65;;;18.00;91.40;;;;;;5072474;28;20268;-74
2021/10/03 08:00:08;;;;;;;1.77;0.93;;;18.00;91.40;;;;;;5073230;28;20032;-74
2021/10/03 08:02:34;;;;;;;3.83;0.52;;;18.00;91.40;;;;;;5071659;28;20072;-74
2021/10/03 08:05:00;;;;;;;2.28;0.70;;;18.00;91.30;;;;;;5085744;28;20113;-71
2021/10/03 08:07:25;;;;;;;1.00;0.73;;;17.90;91.20;;;;;;5076354;28;20021;-72
2021/10/03 08:09:51;;;;;;;1.92;0.60;;;18.00;91.30;;;;;;5074005;28;20107;-71
2021/10/03 08:12:17;;;;;;;1.65;0.90;;;18.00;91.30;;;;;;5073038;28;20442;-72
2021/10/03 08:14:42;;;;;;;1.00;0.68;;;17.90;91.30;;;;;;5072017;28;20032;-67
2021/10/03 08:17:08;;;;;;;0.57;0.50;;;17.90;91.30;;;;;;5068476;28;20097;-74
2021/10/03 08:19:34;;;;;;;9.15;0.68;;;17.90;91.10;;;;;;5075421;28;20090;-74
2021/10/03 08:22:00;;;;;;;0.35;0.35;;;17.80;91.00;;;;;;5070907;28;20036;-74
2021/10/03 08:24:26;;;;;;;0.30;0.30;;;17.80;91.10;;;;;;5075055;28;20016;-74
2021/10/03 08:26:51;;;;;;;0.80;0.43;;;17.70;91.10;;;;;;5073942;28;20434;-75
2021/10/03 08:29:18;;;;;;;0.50;0.50;;;17.60;91.10;;;;;;5073328;28;20384;-74
2021/10/03 08:31:43;;;;;;;5.93;0.90;;;17.60;91.20;;;;;;5072458;28;20056;-74
2021/10/03 08:34:09;;;;;;;1.70;0.57;;;17.50;91.20;;;;;;5068806;28;20424;-69
2021/10/03 08:36:35;;;;;;;0.30;0.30;;;17.50;91.20;;;;;;5073598;28;20083;-74
2021/10/03 08:39:00;;;;;;;0.28;0.28;;;17.50;91.30;;;;;;5072668;28;20392;-74
2021/10/03 08:41:26;;;;;;;2.17;0.52;;;17.40;91.20;;;;;;5072595;28;20046;-75
2021/10/03 08:43:55;;;;;;;2.17;0.40;;;17.40;91.20;;;;;;5070994;28;20091;-74
2021/10/03 08:46:27;;;;;;;0.60;0.50;;;17.30;91.20;;;;;;5070525;28;20521;-74
2021/10/03 08:48:54;;;;;;;1.00;0.60;;;17.30;91.30;;;;;;5072705;28;20147;-72
2021/10/03 08:51:20;;;;;;;0.55;0.52;;;17.20;91.30;;;;;;5072507;28;20115;-74
2021/10/03 08:53:46;;;;;;;0.60;0.60;;;17.20;91.30;;;;;;5073897;28;20035;-75
2021/10/03 08:56:13;;;;;;;1.55;0.63;;;17.30;91.30;;;;;;5072726;28;20025;-76
2021/10/03 08:58:38;;;;;;;0.50;0.50;;;17.20;91.20;;;;;;5071533;28;20495;-74
2021/10/03 09:01:05;;;;;;;1.42;0.60;;;17.20;91.20;;;;;;5072958;28;20029;-75
2021/10/03 09:03:34;;;;;;;0.57;0.40;;;17.20;91.20;;;;;;5070540;28;20560;-74
2021/10/03 09:06:02;;;;;;;3.92;0.50;;;17.20;91.20;;;;;;5075208;28;20031;-74
2021/10/03 09:08:30;;;;;;;0.50;0.50;;;17.20;91.20;;;;;;5083953;28;20040;-74
2021/10/03 09:11:22;;;;;;;3.08;0.82;;;17.30;91.10;;;;;;5076672;28;20033;-75
2021/10/03 09:14:34;;;;;;;1.23;0.60;;;17.30;91.10;;;;;;5084571;28;20039;-74
2021/10/03 09:16:59;;;;;;;0.52;0.52;;;17.20;91.10;;;;;;5089302;28;20047;-74
2021/10/03 09:19:25;;;;;;;0.82;0.50;;;17.20;91.10;;;;;;5088927;28;20078;-72
2021/10/03 09:21:52;;;;;;;1.17;0.60;;;17.20;91.10;;;;;;5082667;28;20075;-74
2021/10/03 09:24:21;;;;;;;2.15;1.00;;;17.20;91.10;;;;;;5079675;28;20430;-73
2021/10/03 09:27:01;;;;;;;1.77;0.80;;;17.30;91.10;;;;;;5076757;28;20063;-71
2021/10/03 09:29:30;;;;;;;2.00;0.60;;;17.20;91.10;;;;;;5080566;28;20372;-74
2021/10/03 09:32:17;;;;;;;2.55;0.73;;;17.30;91.00;;;;;;5076316;28;20078;-73
2021/10/03 09:34:51;;;;;;;1.55;0.65;;;17.30;91.00;;;;;;5081403;28;20062;-78
2021/10/03 09:37:29;;;;;;;1.90;0.60;;;17.30;90.90;;;;;;5081980;28;20086;-74
2021/10/03 09:40:13;;;;;;;1.58;0.52;;;17.30;91.20;;;;;;5073114;28;20055;-75
2021/10/03 09:42:42;;;;;;;;;;;17.30;90.90;;;;;;5090880;28;20516;-77
2021/10/03 09:45:17;;;;;;;0.93;0.73;;;17.40;90.90;;;;;;5085176;28;19912;-76
2021/10/03 09:47:45;;;;;;;3.40;0.70;;;17.40;90.80;;;;;;5088570;28;20035;-79
2021/10/03 09:50:14;;;;;;;2.63;0.70;;;17.40;90.80;;;;;;5089931;28;20030;-76
2021/10/03 09:52:41;;;;;;;5.05;0.50;;;17.40;90.90;;;;;;5092424;28;20028;-76
2021/10/03 09:55:10;;;;;;;0.88;0.45;;;17.40;90.80;;;;;;5078000;28;20029;-77
2021/10/03 09:57:39;;;;;;;1.55;0.57;;;17.40;90.80;;;;;;5077431;28;20537;-77
2021/10/03 10:00:06;;;;;;;1.58;0.82;;;17.40;90.70;;;;;;5077849;28;20024;-77
2021/10/03 10:02:33;;;;;;;3.13;0.80;;;17.50;90.80;;;;;;5084767;28;20042;-75
2021/10/03 10:04:59;;;;;;;1.13;0.60;;;17.40;90.80;;;;;;5090034;28;20063;-77
2021/10/03 10:07:25;;;;;;;5.38;0.80;;;17.50;90.80;;;;;;5077117;28;20103;-77
2021/10/03 10:09:51;;;;;;;1.55;0.60;;;17.50;90.70;;;;;;5079849;28;20539;-78
2021/10/03 10:12:22;;;;;;;2.45;0.50;;;17.60;90.70;;;;;;5086420;28;20107;-75
2021/10/03 10:15:00;;;;;;;1.48;0.68;;;17.60;90.70;;;;;;5085677;28;20490;-75
2021/10/03 10:17:31;;;;;;;2.38;0.60;;;17.60;90.60;;;;;;5088349;28;20032;-74
2021/10/03 10:19:59;;;;;;;2.85;0.75;;;17.60;90.50;;;;;;5087837;28;20051;-76
2021/10/03 10:22:25;;;;;;;2.00;0.80;;;17.70;90.60;;;;;;5088239;28;20824;-76
2021/10/03 10:24:54;;;;;;;1.60;0.80;;;17.60;90.50;;;;;;5089242;28;20352;-74
2021/10/03 10:27:32;;;;;;;3.70;0.90;;;17.70;90.50;;;;;;5085769;28;20024;-74
2021/10/03 10:29:59;;;;;;;1.98;0.63;;;17.70;90.50;;;;;;5091647;28;20020;-75
2021/10/03 10:32:28;;;;;;;1.00;0.60;;;17.70;90.40;;;;;;5091178;28;20570;-76
2021/10/03 10:35:12;;;;;;;1.98;0.80;;;17.70;90.50;;;;;;5091085;28;20026;-77
2021/10/03 10:37:50;;;;;;;1.05;0.60;;;17.70;90.40;;;;;;5084810;28;20059;-77
2021/10/03 10:40:24;;;;;;;1.67;0.55;;;17.80;90.30;;;;;;5087571;28;20131;-77
2021/10/03 10:43:21;;;;;;;1.30;0.80;;;17.80;90.30;;;;;;5070468;28;20629;-76
2021/10/03 10:45:46;;;;;;;2.80;0.70;;;17.80;90.30;;;;;;5072709;28;20027;-78
2021/10/03 10:48:15;;;;;;;1.08;0.50;;;17.80;90.30;;;;;;5083264;28;20029;-75
2021/10/03 10:50:43;;;;;;;1.90;0.77;;;17.80;90.20;;;;;;5085164;28;20028;-76
2021/10/03 10:53:25;;;;;;;1.90;0.70;;;17.80;90.20;;;;;;5078580;28;20043;-78
2021/10/03 10:56:12;;;;;;;1.75;0.63;;;17.90;90.20;;;;;;5086543;28;20050;-77
2021/10/03 10:58:52;;;;;;;1.25;0.60;;;17.90;90.10;;;;;;5087385;28;20043;-78
2021/10/03 11:01:30;;;;;;;4.45;0.98;;;17.90;90.00;;;;;;5084913;28;20036;-77
2021/10/03 11:03:59;;;;;;;1.65;0.77;;;17.90;90.10;;;;;;5085143;28;20111;-75
2021/10/03 11:06:27;;;;;;;0.73;0.70;;;17.90;90.00;;;;;;5088834;28;20042;-75
2021/10/03 11:09:10;;;;;;;1.00;0.50;;;17.90;90.00;;;;;;5087139;28;20024;-75
2021/10/03 11:11:39;;;;;;;2.47;0.70;;;18.00;90.00;;;;;;5086935;28;20020;-75
2021/10/03 11:14:10;;;;;;;2.17;0.50;;;17.90;89.90;;;;;;5090659;28;20110;-75
2021/10/03 11:16:42;;;;;;;3.58;1.05;;;18.00;90.00;;;;;;5082848;28;20758;-75
2021/10/03 11:19:14;;;;;;;0.55;0.55;;;18.00;90.00;;;;;;5088906;28;20028;-75
2021/10/03 11:21:41;;;;;;;1.73;0.70;;;17.90;89.80;;;;;;5072771;28;20302;-75
2021/10/03 11:24:09;;;;;;;0.90;0.43;;;18.00;89.70;;;;;;5074859;28;20028;-75
2021/10/03 11:26:48;;;;;;;0.95;0.68;;;17.90;89.40;;;;;;5091211;28;20098;-76
2021/10/03 11:29:14;;;;;;;3.05;0.55;;;18.00;89.20;;;;;;5089639;28;20093;-75
2021/10/03 11:31:45;;;;;;;2.45;0.65;;;18.00;89.40;;;;;;5081873;28;20016;-73
2021/10/03 11:34:43;;;;;;;0.40;0.40;;;18.00;89.50;;;;;;5072971;28;20543;-73
2021/10/03 11:37:14;;;;;;;3.42;1.00;;;18.00;89.60;;;;;;5086052;28;20489;-73
2021/10/03 11:39:49;;;;;;;0.93;0.77;;;18.00;89.70;;;;;;5087872;28;20051;-74
2021/10/03 11:42:37;;;;;;;3.03;0.65;;;18.00;90.00;;;;;;5081129;28;20050;-73
2021/10/03 11:45:13;;;;;;;1.45;0.73;;;18.00;89.90;;;;;;5078943;28;20070;-72
2021/10/03 11:47:48;;;;;;;0.50;0.35;;;18.00;89.60;;;;;;5081997;28;20131;-74
2021/10/03 11:50:20;;;;;;;2.20;0.63;;;18.00;89.30;;;;;;5082789;28;20046;-74
2021/10/03 11:52:46;;;;;;;2.97;0.80;;;18.00;89.70;;;;;;5079938;28;20033;-74
2021/10/03 11:55:18;;;;;;;3.10;0.60;;;17.90;89.50;;;;;;5077259;28;20024;-70
2021/10/03 11:57:49;;;;;;;2.45;0.90;;;18.00;89.50;;;;;;5081174;28;20024;-73
2021/10/03 12:00:25;;;;;;;0.55;0.50;;;18.00;89.60;;;;;;5073639;28;20533;-74
2021/10/03 12:02:53;;;;;;;1.05;0.60;;;17.90;89.40;;;;;;5072149;28;20047;-73
2021/10/03 12:05:25;;;;;;;1.60;0.60;;;17.90;89.30;;;;;;5089813;28;20032;-74
2021/10/03 12:08:21;;;;;;;0.38;0.38;;;17.90;89.50;;;;;;5090243;28;20032;-74
2021/10/03 12:10:49;;;;;;;3.08;0.80;;;17.90;89.60;;;;;;5061586;28;20380;-73
2021/10/03 12:13:27;;;;;;;1.70;0.70;;;17.80;89.50;;;;;;5083819;28;20032;-73
2021/10/03 12:15:56;;;;;;;1.90;0.70;;;17.80;89.60;;;;;;5090080;28;20035;-73
2021/10/03 12:18:25;;;;;;;2.00;1.20;;;17.80;89.80;;;;;;5079924;28;20030;-74
2021/10/03 12:20:55;;;;;;;1.55;0.63;;;17.80;90.00;;;;;;5087128;28;20102;-72
2021/10/03 12:23:40;;;;;;;1.08;0.70;;;17.80;90.00;;;;;;5084181;28;20020;-72
2021/10/03 12:26:18;;;;;;;3.97;0.80;;;17.80;90.10;;;;;;5083586;28;20059;-72
2021/10/03 12:29:07;;;;;;;1.50;0.60;;;17.80;90.20;;;;;;5080143;28;20387;-72
2021/10/03 12:31:45;;;;;;;4.80;1.88;;;17.90;90.30;;;;;;5088463;28;20043;-72
2021/10/03 12:34:14;;;;;;;2.92;0.70;;;17.90;90.20;;;;;;5078009;28;20036;-73
2021/10/03 12:36:48;;;;;;;2.97;1.00;;;17.90;90.20;;;;;;5087977;28;20025;-75
2021/10/03 12:39:19;;;;;;;2.15;0.73;;;17.90;90.10;;;;;;5080240;28;20055;-74
2021/10/03 12:41:45;;;;;;;1.50;0.70;;;18.00;90.00;;;;;;5081604;28;20040;-74
2021/10/03 12:44:10;;;;;;;5.13;0.70;;;18.00;90.00;;;;;;5081973;28;20069;-74
2021/10/03 12:46:36;;;;;;;1.50;1.20;;;18.00;90.00;;;;;;5079505;28;20062;-73
2021/10/03 12:49:03;;;;;;;1.48;0.57;;;18.00;90.00;;;;;;5076609;28;20028;-73
2021/10/03 12:51:29;;;;;;;2.05;0.68;;;18.10;90.10;;;;;;5083391;28;20149;-73
2021/10/03 12:53:55;;;;;;;1.77;0.75;;;18.10;90.50;;;;;;5084156;28;20035;-74